Time;durP1;ratioP1;P1;durP2;ratioP2;P2;SDS_P1;SDS_P2;PMS_P1;PMS_P2;Temp;Humidity;BMP_temperature;BMP_pressure;BME280_temperature;BME280_humidity;BME280_pressure;Samples;Min_cycle;Max_cycle;Signal;HPM_P1;HPM_P2
2022/08/23 00:01:34;;;;;;;2.55;2.05;;;;;;;17.85;100.00;97811.17;1710790;80;28121;-86
2022/08/23 00:04:04;;;;;;;2.33;2.10;;;;;;;17.80;100.00;97810.84;1680572;82;28293;-86
2022/08/23 00:06:31;;;;;;;4.12;2.62;;;;;;;17.76;100.00;97816.98;1735891;80;28256;-86
2022/08/23 00:08:58;;;;;;;5.25;2.83;;;;;;;17.69;100.00;97817.31;1722064;81;28220;-85
2022/08/23 00:11:34;;;;;;;4.28;2.60;;;;;;;17.62;100.00;97815.52;1734106;81;28132;-86
2022/08/23 00:14:03;;;;;;;3.20;2.60;;;;;;;17.60;100.00;97817.49;1736937;80;28057;-86
2022/08/23 00:16:30;;;;;;;3.45;2.80;;;;;;;17.66;100.00;97815.02;1715086;81;28056;-86
2022/08/23 00:18:56;;;;;;;4.55;2.80;;;;;;;17.75;100.00;97819.79;1724916;81;28046;-85
2022/08/23 00:21:28;;;;;;;2.42;2.00;;;;;;;17.76;100.00;97813.02;1724551;80;28259;-86
2022/08/23 00:23:54;;;;;;;3.75;2.08;;;;;;;17.82;100.00;97812.84;1733578;80;28062;-85
2022/08/23 00:26:20;;;;;;;3.87;2.70;;;;;;;17.86;100.00;97814.98;1724026;81;28238;-86
2022/08/23 00:28:48;;;;;;;2.95;2.25;;;;;;;17.88;100.00;97815.65;1715401;81;28086;-86
2022/08/23 00:31:19;;;;;;;4.65;2.60;;;;;;;17.97;100.00;97808.02;1724861;81;28164;-86
2022/08/23 00:33:46;;;;;;;3.72;2.80;;;;;;;18.05;100.00;97811.64;1734016;81;28126;-86
2022/08/23 00:36:12;;;;;;;5.58;2.65;;;;;;;18.03;100.00;97812.30;1734232;81;28170;-86
2022/08/23 00:38:38;;;;;;;5.75;3.40;;;;;;;17.98;100.00;97808.84;1701143;81;28074;-86
2022/08/23 00:41:05;;;;;;;6.08;3.52;;;;;;;18.00;100.00;97806.03;1692191;82;28104;-86
2022/08/23 00:49:24;;;;;;;7.03;3.22;;;;;;;18.03;100.00;97805.69;1696090;81;28104;-86
2022/08/23 00:52:11;;;;;;;4.72;2.60;;;;;;;18.04;100.00;97806.84;1697052;82;28173;-86
2022/08/23 00:54:40;;;;;;;5.03;3.12;;;;;;;18.11;100.00;97805.68;1673131;82;28093;-86
2022/08/23 00:57:12;;;;;;;5.00;3.72;;;;;;;18.08;100.00;97810.80;1716064;81;28095;-87
2022/08/23 00:59:40;;;;;;;;;;;;;;;18.06;100.00;97820.72;1692320;82;28101;-87
2022/08/23 01:02:07;;;;;;;5.37;3.33;;;;;;;18.04;100.00;97828.52;1703547;81;26055;-86
2022/08/23 01:04:40;;;;;;;5.97;3.65;;;;;;;18.04;100.00;97832.00;1728135;81;28064;-86
2022/08/23 01:07:30;;;;;;;4.85;2.65;;;;;;;18.05;100.00;97839.45;1656267;82;28016;-89
2022/08/23 01:10:00;;;;;;;6.00;4.00;;;;;;;18.07;100.00;97846.22;1686344;81;28274;-89
2022/08/23 01:12:36;;;;;;;6.60;3.95;;;;;;;18.16;100.00;97835.95;1686812;81;27998;-89
2022/08/23 01:15:08;;;;;;;7.10;3.33;;;;;;;18.28;100.00;97837.72;1712378;81;28026;-89
2022/08/23 01:17:42;;;;;;;4.83;3.10;;;;;;;18.35;100.00;97833.40;1711695;80;28036;-89
2022/08/23 01:20:12;;;;;;;3.87;3.08;;;;;;;18.38;100.00;97831.75;1697592;81;28243;-89
2022/08/23 01:22:51;;;;;;;5.35;2.77;;;;;;;18.44;100.00;97838.19;1690000;81;28231;-88
2022/08/23 01:25:20;;;;;;;4.25;2.47;;;;;;;18.40;100.00;97830.57;1689447;81;28087;-89
2022/08/23 01:27:48;;;;;;;4.50;2.85;;;;;;;18.43;100.00;97835.21;1693379;82;28081;-88
2022/08/23 01:30:17;;;;;;;3.72;2.50;;;;;;;18.43;100.00;97842.66;1708570;80;28174;-89
2022/08/23 01:32:47;;;;;;;6.08;3.20;;;;;;;18.38;100.00;97846.33;1720173;81;28210;-89
2022/08/23 01:35:15;;;;;;;4.78;3.30;;;;;;;18.31;100.00;97842.20;1736314;80;28285;-89
2022/08/23 01:37:43;;;;;;;5.83;3.20;;;;;;;18.24;100.00;97835.91;1735883;81;28096;-89
2022/08/23 01:40:09;;;;;;;6.17;3.22;;;;;;;18.21;100.00;97839.41;1700625;80;28114;-89
2022/08/23 01:42:35;;;;;;;4.40;3.20;;;;;;;18.27;100.00;97831.59;1732705;80;28253;-88
2022/08/23 01:45:04;;;;;;;7.22;3.42;;;;;;;18.28;100.00;97833.74;1732996;81;28236;-88
2022/08/23 01:47:30;;;;;;;6.03;3.45;;;;;;;18.18;100.00;97831.79;1722292;80;28136;-88
2022/08/23 01:49:57;;;;;;;5.00;3.55;;;;;;;18.28;100.00;97837.22;1718306;80;28265;-89
2022/08/23 01:52:23;;;;;;;6.87;3.17;;;;;;;18.33;100.00;97832.23;1731880;80;28155;-88
2022/08/23 01:54:49;;;;;;;5.50;3.90;;;;;;;18.34;100.00;97829.09;1732143;80;28083;-89
2022/08/23 01:57:16;;;;;;;6.12;3.70;;;;;;;18.23;100.00;97838.73;1717047;80;28216;-89
2022/08/23 01:59:43;;;;;;;6.80;4.25;;;;;;;18.10;100.00;97837.95;1716767;80;28083;-89
2022/08/23 02:02:13;;;;;;;5.87;3.75;;;;;;;18.10;100.00;97840.60;1701610;80;28248;-88
2022/08/23 02:04:38;;;;;;;7.83;4.08;;;;;;;18.17;100.00;97833.61;1733813;80;28045;-87
2022/08/23 02:07:04;;;;;;;7.80;4.03;;;;;;;18.28;100.00;97846.98;1706287;81;28071;-87
2022/08/23 02:09:30;;;;;;;6.15;3.77;;;;;;;18.37;100.00;97854.77;1729084;80;28161;-87
2022/08/23 02:11:57;;;;;;;6.53;3.45;;;;;;;18.37;100.00;97852.12;1713333;81;28112;-88
2022/08/23 02:14:29;;;;;;;8.05;4.22;;;;;;;18.35;100.00;97844.83;1696481;82;28116;-88
2022/08/23 02:16:57;;;;;;;7.53;3.45;;;;;;;18.41;100.00;97847.30;1686279;81;28126;-90
2022/08/23 02:19:26;;;;;;;7.62;4.72;;;;;;;18.47;100.00;97843.97;1726386;81;28145;-89
2022/08/23 02:21:52;;;;;;;6.53;4.62;;;;;;;18.54;100.00;97847.62;1723373;81;28117;-89
2022/08/23 02:24:22;;;;;;;7.60;5.10;;;;;;;18.53;100.00;97853.05;1734657;81;28272;-89
2022/08/23 02:26:54;;;;;;;5.80;4.62;;;;;;;18.52;100.00;97855.38;1725024;80;28102;-89
2022/08/23 02:29:22;;;;;;;6.65;4.35;;;;;;;18.55;100.00;97849.25;1720391;81;28078;-89
2022/08/23 02:31:48;;;;;;;6.80;4.22;;;;;;;18.54;100.00;97850.28;1722884;81;28233;-87
2022/08/23 02:34:17;;;;;;;4.90;3.33;;;;;;;18.57;100.00;97849.92;1730311;81;28209;-87
2022/08/23 02:36:45;;;;;;;6.42;4.28;;;;;;;18.61;100.00;97855.69;1723680;81;28424;-88
2022/08/23 02:39:12;;;;;;;7.70;3.80;;;;;;;18.56;100.00;97860.19;1704746;81;28912;-89
2022/08/23 02:41:40;;;;;;;5.97;3.50;;;;;;;18.51;100.00;97859.84;1675701;81;28099;-88
2022/08/23 02:44:06;;;;;;;5.67;3.50;;;;;;;18.47;100.00;97863.01;1690371;82;28072;-89
2022/08/23 02:46:33;;;;;;;5.60;3.50;;;;;;;18.46;100.00;97856.88;1700152;80;28021;-89
2022/08/23 02:48:59;;;;;;;6.35;4.40;;;;;;;18.47;100.00;97854.56;1715661;81;28103;-89
2022/08/23 02:51:25;;;;;;;7.10;4.35;;;;;;;18.56;100.00;97858.86;1711753;81;28203;-87
2022/08/23 02:54:08;;;;;;;6.87;4.50;;;;;;;18.60;100.00;97858.04;1688670;81;28108;-87
2022/08/23 02:56:35;;;;;;;8.73;4.65;;;;;;;18.62;100.00;97865.30;1677454;81;28075;-88
2022/08/23 02:59:02;;;;;;;7.83;4.67;;;;;;;18.66;100.00;97867.43;1735777;80;28012;-88
2022/08/23 03:01:31;;;;;;;7.22;4.55;;;;;;;18.68;100.00;97866.77;1681171;82;28285;-88
2022/08/23 03:03:58;;;;;;;8.28;5.40;;;;;;;18.65;100.00;97864.98;1710179;81;28208;-88
2022/08/23 03:06:26;;;;;;;8.28;5.28;;;;;;;18.63;100.00;97872.27;1698260;81;28102;-88
2022/08/23 03:08:53;;;;;;;8.45;5.20;;;;;;;18.59;100.00;97861.68;1700740;81;28118;-88
2022/08/23 03:11:21;;;;;;;7.95;5.30;;;;;;;18.55;100.00;97869.13;1722397;81;28112;-89
2022/08/23 03:13:48;;;;;;;7.87;5.05;;;;;;;18.48;100.00;97869.47;1702183;81;28043;-88
2022/08/23 03:16:16;;;;;;;9.10;5.33;;;;;;;18.50;100.00;97869.28;1702601;81;28073;-88
2022/08/23 03:18:43;;;;;;;9.45;5.33;;;;;;;18.52;100.00;97871.27;1706499;81;28004;-88
2022/08/23 03:21:10;;;;;;;8.25;4.50;;;;;;;18.55;100.00;97872.27;1694743;81;28154;-87
2022/08/23 03:23:38;;;;;;;10.05;5.42;;;;;;;18.58;100.00;97877.25;1692217;81;28186;-87
2022/08/23 03:26:07;;;;;;;7.60;5.12;;;;;;;18.54;100.00;97879.89;1693866;81;28274;-87
2022/08/23 03:28:36;;;;;;;9.40;5.15;;;;;;;18.51;100.00;97881.05;1692867;81;28247;-87
2022/08/23 03:31:09;;;;;;;8.60;5.37;;;;;;;18.48;100.00;97876.09;1714484;81;27996;-87
2022/08/23 03:33:36;;;;;;;7.28;4.50;;;;;;;18.50;100.00;97878.55;1699961;81;28086;-87
2022/08/23 03:36:06;;;;;;;6.95;4.72;;;;;;;18.51;100.00;97877.56;1681910;82;28184;-85
2022/08/23 03:38:33;;;;;;;6.50;4.50;;;;;;;18.49;100.00;97882.23;1695635;81;28117;-85
2022/08/23 03:41:00;;;;;;;8.15;4.17;;;;;;;18.39;100.00;97881.07;1712197;81;28265;-86
2022/08/23 03:43:26;;;;;;;9.00;4.47;;;;;;;18.32;100.00;97883.59;1729029;81;28538;-86
2022/08/23 03:45:54;;;;;;;6.72;4.83;;;;;;;18.38;100.00;97881.56;1692491;82;28264;-89
2022/08/23 03:48:20;;;;;;;7.28;4.70;;;;;;;18.45;100.00;97883.54;1712100;81;28043;-89
2022/08/23 03:50:47;;;;;;;8.80;5.25;;;;;;;18.48;100.00;97881.39;1712587;81;28135;-88
2022/08/23 03:53:13;;;;;;;9.38;4.67;;;;;;;18.54;100.00;97891.35;1711355;81;28207;-87
2022/08/23 03:55:42;;;;;;;8.85;4.97;;;;;;;18.57;100.00;97889.67;1717655;81;28055;-86
2022/08/23 03:58:08;;;;;;;7.92;4.50;;;;;;;18.61;100.00;97888.33;1697354;82;27994;-86
2022/08/23 04:00:38;;;;;;;8.13;4.92;;;;;;;18.64;100.00;97890.66;1691727;81;28142;-87
2022/08/23 04:03:04;;;;;;;6.97;4.45;;;;;;;18.66;100.00;97895.27;1702468;81;28158;-87
2022/08/23 04:05:36;;;;;;;8.85;5.28;;;;;;;18.66;100.00;97891.29;1702026;82;28128;-89
2022/08/23 04:08:09;;;;;;;5.37;3.92;;;;;;;18.68;100.00;97893.28;1683348;81;28116;-87
2022/08/23 04:10:37;;;;;;;7.00;4.50;;;;;;;18.71;100.00;97888.95;1696198;81;28088;-87
2022/08/23 04:13:07;;;;;;;7.53;4.83;;;;;;;18.71;100.00;97890.27;1696414;81;28089;-87
2022/08/23 04:15:34;;;;;;;12.90;5.62;;;;;;;18.68;100.00;97886.66;1714930;81;28071;-87
2022/08/23 04:18:01;;;;;;;7.17;4.75;;;;;;;18.68;100.00;97889.30;1724830;81;28138;-89
2022/08/23 04:20:30;;;;;;;7.90;5.05;;;;;;;18.71;100.00;97892.13;1738483;81;28110;-89
2022/08/23 04:22:57;;;;;;;9.08;5.47;;;;;;;18.73;100.00;97889.61;1718268;81;28070;-89
2022/08/23 04:25:24;;;;;;;8.80;5.20;;;;;;;18.77;100.00;97890.09;1722286;81;28138;-88
2022/08/23 04:27:50;;;;;;;12.03;5.15;;;;;;;18.77;100.00;97894.89;1736598;81;28126;-88
2022/08/23 04:30:18;;;;;;;8.08;5.08;;;;;;;18.78;100.00;97896.55;1730659;81;28117;-86
2022/08/23 04:32:48;;;;;;;8.28;4.83;;;;;;;18.78;100.00;97897.05;1735651;80;28074;-87
2022/08/23 04:35:15;;;;;;;6.67;4.53;;;;;;;18.76;100.00;97895.89;1697082;81;28091;-86
2022/08/23 04:37:41;;;;;;;8.20;4.97;;;;;;;18.76;100.00;97898.53;1696992;81;28092;-86
2022/08/23 04:42:55;;;;;;;8.88;4.72;;;;;;;18.80;100.00;97903.02;1702117;80;28109;-89
2022/08/23 04:45:27;;;;;;;9.35;4.87;;;;;;;18.76;100.00;97905.16;1721766;81;28031;-89
2022/08/23 04:47:50;;;;;;;5.47;4.20;;;;;;;18.79;100.00;97910.14;1716296;81;28118;-87
2022/08/23 04:50:17;;;;;;;6.47;4.45;;;;;;;18.84;100.00;97914.92;1701077;81;28562;-86
2022/08/23 04:52:43;;;;;;;7.67;4.87;;;;;;;18.87;100.00;97915.92;1693258;82;28112;-89
2022/08/23 04:55:11;;;;;;;7.42;4.40;;;;;;;18.91;100.00;97924.35;1729350;80;28138;-88
2022/08/23 04:57:41;;;;;;;5.97;4.28;;;;;;;18.93;100.00;97919.72;1695279;81;28112;-88
2022/08/23 05:00:11;;;;;;;11.43;5.08;;;;;;;18.94;100.00;97920.02;1700126;81;28150;-88
2022/08/23 05:02:38;;;;;;;10.25;5.92;;;;;;;18.91;100.00;97914.58;1705616;81;28034;-88
2022/08/23 05:05:06;;;;;;;8.35;5.30;;;;;;;18.94;100.00;97915.54;1717219;81;28133;-86
2022/08/23 05:07:33;;;;;;;9.13;4.58;;;;;;;18.95;100.00;97912.39;1697797;81;28108;-88
2022/08/23 05:09:59;;;;;;;8.95;5.72;;;;;;;18.94;100.00;97912.06;1693140;81;28697;-87
2022/08/23 05:12:33;;;;;;;14.47;6.92;;;;;;;18.93;100.00;97915.21;1713106;81;43633;-87
2022/08/23 05:14:59;;;;;;;20.05;7.53;;;;;;;18.91;100.00;97913.75;1733765;80;28326;-87
2022/08/23 05:17:25;;;;;;;14.25;7.30;;;;;;;18.89;100.00;97919.21;1700037;81;28021;-88
2022/08/23 05:19:52;;;;;;;15.60;7.33;;;;;;;18.90;100.00;97924.84;1695408;81;28080;-87
2022/08/23 05:22:34;;;;;;;15.38;6.90;;;;;;;18.89;100.00;97932.97;1699373;81;28201;-87
2022/08/23 05:25:01;;;;;;;15.65;7.67;;;;;;;18.91;100.00;97933.63;1712424;81;28102;-87
2022/08/23 05:27:27;;;;;;;18.20;8.55;;;;;;;18.92;100.00;97937.45;1705840;81;28191;-87
2022/08/23 05:29:53;;;;;;;21.48;8.23;;;;;;;18.97;100.00;97934.27;1698843;81;28104;-87
2022/08/23 05:32:32;;;;;;;16.02;8.40;;;;;;;19.03;100.00;97940.22;1709464;81;28276;-87
2022/08/23 05:34:58;;;;;;;18.35;9.55;;;;;;;19.05;100.00;97935.55;1702333;81;28097;-88
2022/08/23 05:37:24;;;;;;;19.05;8.83;;;;;;;19.03;100.00;97947.68;1689699;81;28061;-88
2022/08/23 05:39:50;;;;;;;13.50;7.62;;;;;;;19.06;100.00;97947.82;1699074;81;28023;-88
2022/08/23 05:42:17;;;;;;;12.80;7.15;;;;;;;19.13;100.00;97950.13;1711259;81;43591;-88
2022/08/23 05:44:52;;;;;;;16.37;8.30;;;;;;;19.20;100.00;97951.09;1725978;81;28095;-88
2022/08/23 05:47:21;;;;;;;15.90;7.12;;;;;;;19.21;100.00;97956.20;1711842;81;28101;-87
2022/08/23 05:49:49;;;;;;;11.60;7.10;;;;;;;19.25;100.00;97954.05;1709409;81;28224;-89
2022/08/23 05:52:15;;;;;;;15.93;7.95;;;;;;;19.26;100.00;97958.83;1694118;81;28078;-89
2022/08/23 05:54:45;;;;;;;10.63;6.50;;;;;;;19.32;100.00;97961.62;1705660;81;28112;-88
2022/08/23 05:57:15;;;;;;;12.13;6.20;;;;;;;19.39;100.00;97959.94;1703145;81;28560;-87
2022/08/23 05:59:43;;;;;;;11.78;6.83;;;;;;;19.42;100.00;97964.08;1703448;81;28053;-87
2022/08/23 06:02:14;;;;;;;15.90;7.75;;;;;;;19.42;100.00;97964.88;1693478;81;28069;-87
2022/08/23 06:04:40;;;;;;;14.98;8.13;;;;;;;19.41;100.00;97964.58;1685983;82;28081;-87
2022/08/23 06:07:08;;;;;;;14.90;8.13;;;;;;;19.45;100.00;97971.22;1711967;81;28108;-88
2022/08/23 06:09:34;;;;;;;12.82;6.87;;;;;;;19.47;100.00;97964.41;1689299;81;28110;-88
2022/08/23 06:12:13;;;;;;;11.90;7.12;;;;;;;19.44;100.00;97957.58;1716074;81;28134;-88
2022/08/23 06:14:40;;;;;;;10.28;6.97;;;;;;;19.44;100.00;97957.58;1662477;82;28064;-88
2022/08/23 06:17:06;;;;;;;10.70;6.78;;;;;;;19.44;100.00;97956.25;1692592;82;28240;-88
2022/08/23 06:19:34;;;;;;;10.38;6.60;;;;;;;19.47;100.00;97962.59;1659777;83;28100;-88
2022/08/23 06:22:04;;;;;;;11.18;7.33;;;;;;;19.44;100.00;97965.55;1703915;81;28116;-88
2022/08/23 06:24:30;;;;;;;11.78;7.40;;;;;;;19.45;100.00;97958.45;1642900;82;28106;-87
2022/08/23 06:26:56;;;;;;;12.47;8.00;;;;;;;19.46;100.00;97966.24;1694022;81;28080;-88
2022/08/23 06:29:22;;;;;;;13.20;7.87;;;;;;;19.47;100.00;97968.40;1714421;81;28096;-88
2022/08/23 06:31:52;;;;;;;13.50;8.00;;;;;;;19.47;100.00;97969.23;1698158;82;39366;-89
2022/08/23 06:36:55;;;;;;;14.98;8.53;;;;;;;19.61;100.00;97978.26;1709849;81;28230;-89
2022/08/23 06:39:25;;;;;;;15.63;8.80;;;;;;;19.68;100.00;97978.39;1697134;80;28081;-90
2022/08/23 06:41:54;;;;;;;17.15;8.80;;;;;;;19.69;100.00;97980.87;1724002;80;28093;-88
2022/08/23 06:44:21;;;;;;;16.95;8.53;;;;;;;19.74;100.00;97978.52;1714829;80;28144;-89
2022/08/23 06:46:48;;;;;;;13.68;7.28;;;;;;;19.77;100.00;97982.64;1719058;80;28231;-89
2022/08/23 06:49:15;;;;;;;14.15;8.23;;;;;;;19.80;100.00;97986.28;1684636;82;28223;-88
2022/08/23 06:51:45;;;;;;;12.45;8.05;;;;;;;19.83;100.00;97985.42;1710260;81;28158;-89
2022/08/23 06:54:14;;;;;;;15.53;8.00;;;;;;;19.93;100.00;97980.70;1700206;81;28257;-86
2022/08/23 06:56:43;;;;;;;12.60;6.87;;;;;;;20.04;100.00;97982.94;1702316;82;28104;-86
2022/08/23 06:59:09;;;;;;;13.40;7.50;;;;;;;20.08;100.00;97987.39;1733139;80;28209;-87
2022/08/23 07:01:48;;;;;;;13.78;7.78;;;;;;;20.18;100.00;97989.33;1686477;81;28128;-87
2022/08/23 07:04:18;;;;;;;11.18;7.33;;;;;;;20.27;100.00;97991.41;1686507;82;28132;-88
2022/08/23 07:06:47;;;;;;;13.55;7.87;;;;;;;20.38;100.00;98001.14;1698913;82;28092;-89
2022/08/23 07:09:14;;;;;;;10.08;6.53;;;;;;;20.32;100.00;97996.54;1713623;80;28152;-89
2022/08/23 07:11:42;;;;;;;10.48;6.30;;;;;;;20.19;100.00;97998.09;1718394;80;28271;-89
2022/08/23 07:14:12;;;;;;;9.83;6.47;;;;;;;20.23;100.00;98000.75;1718413;81;28094;-88
2022/08/23 07:16:42;;;;;;;17.30;8.85;;;;;;;20.25;100.00;98005.36;1725129;80;28172;-89
2022/08/23 07:19:08;;;;;;;20.60;10.53;;;;;;;20.26;100.00;98007.02;1728271;81;28080;-88
2022/08/23 07:21:37;;;;;;;22.50;10.65;;;;;;;20.29;100.00;98010.13;1729057;80;44074;-89
2022/08/23 07:24:04;;;;;;;24.43;11.18;;;;;;;20.24;100.00;98011.17;1729440;81;28145;-89
2022/08/23 07:26:31;;;;;;;23.75;11.03;;;;;;;20.19;100.00;98010.88;1722555;81;28131;-89
2022/08/23 07:29:00;;;;;;;25.05;11.12;;;;;;;20.12;100.00;98011.79;1730151;81;28230;-89
2022/08/23 07:31:31;;;;;;;22.77;11.12;;;;;;;20.09;100.00;98013.45;1726781;81;28130;-89
2022/08/23 07:34:00;;;;;;;21.57;10.90;;;;;;;20.05;100.00;98015.65;1725891;80;28184;-89
2022/08/23 07:36:27;;;;;;;25.17;12.03;;;;;;;20.04;100.00;98021.46;1732002;81;28148;-89
2022/08/23 07:38:55;;;;;;;25.40;11.25;;;;;;;20.09;100.00;98020.92;1715851;82;28216;-89
2022/08/23 07:41:29;;;;;;;22.05;11.73;;;;;;;20.12;100.00;98024.58;1725615;81;28243;-89
2022/08/23 07:43:57;;;;;;;23.35;12.25;;;;;;;20.11;100.00;98023.41;1725673;81;28125;-89
2022/08/23 07:46:24;;;;;;;26.65;11.97;;;;;;;20.14;100.00;98023.88;1737235;81;28118;-89
2022/08/23 07:48:51;;;;;;;26.00;12.00;;;;;;;20.20;100.00;98029.81;1724573;81;28208;-89
2022/08/23 07:51:17;;;;;;;27.15;12.95;;;;;;;20.20;100.00;98028.48;1736674;81;28232;-89
2022/08/23 07:53:44;;;;;;;27.48;12.90;;;;;;;20.25;100.00;98026.13;1734859;81;28128;-88
2022/08/23 07:56:18;;;;;;;25.60;12.73;;;;;;;20.31;100.00;98025.91;1728971;81;28078;-88
2022/08/23 07:58:46;;;;;;;25.43;12.10;;;;;;;20.32;100.00;98029.76;1722817;81;28109;-88
2022/08/23 08:01:21;;;;;;;23.92;12.85;;;;;;;20.28;100.00;98024.95;1734685;81;28681;-89
2022/08/23 08:03:51;;;;;;;25.10;12.53;;;;;;;20.34;100.00;98022.45;1721086;81;28204;-87
2022/08/23 08:06:24;;;;;;;26.57;12.82;;;;;;;20.42;100.00;98030.34;1728959;81;28069;-87
2022/08/23 08:08:51;;;;;;;26.37;13.65;;;;;;;20.41;100.00;98035.83;1722061;81;28070;-87
2022/08/23 08:11:22;;;;;;;25.75;13.30;;;;;;;20.42;100.00;98032.17;1727082;81;28221;-87
2022/08/23 08:13:50;;;;;;;27.22;13.65;;;;;;;20.49;100.00;98041.59;1735950;80;28159;-87
2022/08/23 08:16:32;;;;;;;29.92;13.43;;;;;;;20.57;100.00;98041.50;1731528;80;28330;-87
2022/08/23 08:19:01;;;;;;;27.20;13.43;;;;;;;20.63;100.00;98040.28;1706895;80;28077;-87
2022/08/23 08:21:29;;;;;;;25.65;11.78;;;;;;;20.71;100.00;98047.38;1735215;80;28151;-87
2022/08/23 08:23:58;;;;;;;25.55;12.47;;;;;;;20.75;100.00;98056.64;1723752;80;28188;-87
2022/08/23 08:26:26;;;;;;;26.30;12.88;;;;;;;20.81;100.00;98057.25;1718917;82;28094;-89
2022/08/23 08:28:58;;;;;;;24.77;12.37;;;;;;;20.86;100.00;98055.70;1736484;81;28119;-90
2022/08/23 08:31:25;;;;;;;20.62;10.95;;;;;;;20.83;100.00;98049.42;1732771;81;28251;-90
2022/08/23 08:33:51;;;;;;;24.70;12.75;;;;;;;20.95;100.00;98062.28;1727031;80;28237;-90
2022/08/23 08:36:36;;;;;;;24.27;12.43;;;;;;;21.01;100.00;98062.36;1729313;81;28093;-89
2022/08/23 08:39:09;;;;;;;28.95;13.68;;;;;;;21.06;100.00;98064.47;1713624;80;28093;-87
2022/08/23 08:42:00;;;;;;;24.92;13.40;;;;;;;21.11;100.00;98067.44;1678814;82;28127;-87
2022/08/23 08:44:45;;;;;;;24.02;13.90;;;;;;;21.14;100.00;98061.27;1725514;80;28168;-90
2022/08/23 08:47:47;;;;;;;27.58;13.80;;;;;;;21.16;100.00;98061.92;1726171;81;28118;-90
2022/08/23 08:50:30;;;;;;;28.80;13.85;;;;;;;21.24;100.00;98063.66;1681857;83;28178;-90
2022/08/23 08:53:10;;;;;;;27.05;13.83;;;;;;;21.27;100.00;98076.61;1728028;81;28212;-89
2022/08/23 08:55:46;;;;;;;23.50;12.58;;;;;;;21.29;100.00;98070.08;1726194;81;28149;-90
2022/08/23 08:58:19;;;;;;;21.70;12.50;;;;;;;21.33;100.00;98078.52;1724758;81;28102;-90
2022/08/23 09:00:45;;;;;;;24.10;11.93;;;;;;;21.39;100.00;98078.28;1712123;81;28207;-89
2022/08/23 09:03:19;;;;;;;24.65;12.78;;;;;;;21.40;100.00;98079.44;1731505;81;28509;-89
2022/08/23 09:05:54;;;;;;;22.30;12.40;;;;;;;21.41;100.00;98077.61;1726788;81;28161;-90
2022/08/23 09:08:39;;;;;;;23.45;12.50;;;;;;;21.45;100.00;98088.20;1713308;81;28079;-89
2022/08/23 09:11:15;;;;;;;18.48;11.08;;;;;;;21.45;100.00;98089.53;1721264;81;28533;-89
2022/08/23 09:14:04;;;;;;;18.37;11.63;;;;;;;21.48;100.00;98096.67;1698614;81;28031;-90
2022/08/23 09:16:37;;;;;;;21.97;11.10;;;;;;;21.52;100.00;98092.62;1703859;81;28100;-89
2022/08/23 09:19:04;;;;;;;20.12;12.35;;;;;;;21.59;100.00;98098.88;1697823;82;28171;-89
2022/08/23 09:21:46;;;;;;;19.35;11.57;;;;;;;21.67;100.00;98104.08;1641274;81;28021;-90
2022/08/23 09:24:17;;;;;;;18.45;10.75;;;;;;;21.76;100.00;98102.16;1606870;86;28104;-89
2022/08/23 09:26:42;;;;;;;17.82;10.50;;;;;;;21.83;100.00;98107.05;1727061;81;27996;-90
2022/08/23 09:29:19;;;;;;;16.00;9.88;;;;;;;21.85;100.00;98102.36;1707005;80;28247;-90
2022/08/23 09:31:51;;;;;;;14.83;9.18;;;;;;;21.87;100.00;98104.34;1728467;81;28168;-90
2022/08/23 09:34:24;;;;;;;;;;;;;;;21.91;100.00;98097.63;1720589;81;28073;-89
2022/08/23 09:36:53;;;;;;;17.40;10.82;;;;;;;21.99;100.00;98098.87;1726743;81;24553;-89
2022/08/23 09:39:29;;;;;;;19.98;10.93;;;;;;;22.05;100.00;98095.45;1724697;80;28068;-89
2022/08/23 09:41:56;;;;;;;16.97;9.80;;;;;;;22.15;100.00;98092.48;1708569;81;28143;-89
2022/08/23 09:44:33;;;;;;;17.17;10.15;;;;;;;22.25;100.00;98089.02;1715886;81;28105;-89
2022/08/23 09:47:11;;;;;;;16.10;9.80;;;;;;;22.30;100.00;98101.78;1726983;81;28128;-89
2022/08/23 09:49:40;;;;;;;17.82;10.15;;;;;;;22.38;100.00;98086.98;1730151;80;28096;-89
2022/08/23 09:52:27;;;;;;;13.38;9.58;;;;;;;22.46;100.00;98089.53;1734271;80;28034;-89
2022/08/23 09:55:08;;;;;;;18.12;10.18;;;;;;;22.52;100.00;98096.78;1718743;81;28106;-87
2022/08/23 09:57:35;;;;;;;14.38;9.33;;;;;;;22.59;100.00;98099.48;1721085;81;28077;-87
2022/08/23 10:00:04;;;;;;;14.10;9.05;;;;;;;22.64;100.00;98102.43;1724867;81;28389;-87
2022/08/23 10:02:33;;;;;;;14.30;9.05;;;;;;;22.70;100.00;98101.64;1674074;82;28011;-87
2022/08/23 10:05:03;;;;;;;16.12;10.58;;;;;;;22.76;100.00;98094.23;1696007;81;28180;-90
2022/08/23 10:07:42;;;;;;;12.82;8.85;;;;;;;22.75;100.00;98102.74;1730648;81;28067;-90
2022/08/23 10:10:27;;;;;;;13.15;8.88;;;;;;;22.76;100.00;98100.40;1702103;81;28169;-90
2022/08/23 10:12:57;;;;;;;13.18;9.00;;;;;;;22.68;100.00;98097.85;1641991;82;28192;-91
2022/08/23 10:15:48;;;;;;;13.75;9.33;;;;;;;22.64;100.00;98104.56;1730786;80;28153;-90
2022/08/23 10:18:22;;;;;;;13.95;8.90;;;;;;;22.68;100.00;98107.19;1729947;81;28188;-90
2022/08/23 10:21:03;;;;;;;11.55;8.80;;;;;;;22.62;100.00;98106.61;1693245;81;28084;-90
2022/08/23 10:23:34;;;;;;;15.10;9.73;;;;;;;22.68;100.00;98108.52;1716703;81;28132;-90
2022/08/23 10:26:02;;;;;;;14.15;9.30;;;;;;;22.77;100.00;98103.90;1715289;81;28090;-87
2022/08/23 10:31:54;;;;;;;11.63;9.15;;;;;;;22.86;100.00;98108.89;1634630;84;28099;-87
2022/08/23 10:34:42;;;;;;;11.60;8.45;;;;;;;22.86;100.00;98108.06;1728753;81;28167;-87
2022/08/23 10:37:27;;;;;;;11.65;8.35;;;;;;;22.88;100.00;98108.20;1728060;81;28240;-87
2022/08/23 10:40:17;;;;;;;12.35;8.38;;;;;;;22.94;100.00;98115.45;1732225;81;28142;-87
2022/08/23 10:42:55;;;;;;;12.55;8.30;;;;;;;22.99;100.00;98118.03;1732564;80;28001;-87
2022/08/23 10:45:31;;;;;;;12.18;8.98;;;;;;;23.01;100.00;98110.67;1735224;80;28162;-87
2022/08/23 10:48:27;;;;;;;14.45;9.55;;;;;;;22.98;100.00;98119.88;1727610;81;28108;-87
2022/08/23 10:51:03;;;;;;;11.85;8.53;;;;;;;22.98;100.00;98119.05;1723517;82;28185;-87
2022/08/23 10:53:45;;;;;;;12.25;8.53;;;;;;;23.00;100.00;98117.02;1707097;82;28058;-87
2022/08/23 10:56:17;;;;;;;15.00;8.80;;;;;;;23.03;100.00;98113.45;1720203;81;28126;-87
2022/08/23 10:58:48;;;;;;;13.38;9.48;;;;;;;23.02;100.00;98115.00;1716991;81;28150;-87
2022/08/23 11:01:30;;;;;;;13.18;8.73;;;;;;;23.01;100.00;98117.34;1727801;80;28136;-87
2022/08/23 11:04:03;;;;;;;14.33;8.80;;;;;;;23.00;100.00;98121.86;1725015;81;28117;-87
2022/08/23 11:06:35;;;;;;;14.28;8.93;;;;;;;22.97;100.00;98121.39;1727051;80;28294;-86
2022/08/23 11:09:20;;;;;;;13.40;8.85;;;;;;;22.99;100.00;98118.03;1730511;81;28095;-87
2022/08/23 11:11:50;;;;;;;12.88;8.48;;;;;;;23.02;100.00;98113.66;1725298;81;28102;-87
2022/08/23 11:14:33;;;;;;;11.40;8.70;;;;;;;23.00;100.00;98113.84;1696598;82;28176;-87
2022/08/23 11:17:02;;;;;;;11.08;8.03;;;;;;;23.05;100.00;98125.27;1730284;81;28015;-87
2022/08/23 11:19:55;;;;;;;12.95;8.55;;;;;;;23.09;100.00;98129.20;1733004;81;28120;-87
2022/08/23 11:22:28;;;;;;;13.93;9.00;;;;;;;23.06;100.00;98123.75;1715999;81;28137;-87
2022/08/23 11:25:01;;;;;;;12.20;9.48;;;;;;;23.12;100.00;98126.16;1726899;80;28243;-87
2022/08/23 11:27:37;;;;;;;12.58;8.88;;;;;;;23.19;100.00;98127.02;1721019;81;28097;-87
2022/08/23 11:30:35;;;;;;;16.48;11.57;;;;;;;23.25;100.00;98132.91;1737132;80;28161;-87
2022/08/23 11:33:10;;;;;;;17.87;11.90;;;;;;;23.31;100.00;98132.14;1723585;81;28079;-87
2022/08/23 11:35:41;;;;;;;18.32;11.63;;;;;;;23.36;100.00;98135.05;1714893;81;28061;-86
2022/08/23 11:38:08;;;;;;;16.23;11.55;;;;;;;23.36;100.00;98129.20;1730892;81;28240;-87
2022/08/23 11:40:40;;;;;;;19.60;13.53;;;;;;;23.44;100.00;98128.73;1734080;80;28278;-87
2022/08/23 11:43:12;;;;;;;19.37;12.93;;;;;;;23.45;100.00;98125.88;1714453;81;28275;-86
2022/08/23 11:45:41;;;;;;;21.30;14.03;;;;;;;23.48;100.00;98134.03;1728181;81;28090;-88
2022/08/23 11:48:29;;;;;;;24.98;13.98;;;;;;;23.51;100.00;98137.12;1730141;80;28120;-89
2022/08/23 11:51:10;;;;;;;19.62;13.05;;;;;;;23.54;100.00;98126.56;1727952;81;28109;-88